createdAt,value
2023-02-03T00:02:22.947Z,93.55
2023-02-03T00:04:49.799Z,83.57
2023-02-03T00:07:16.644Z,76.47
2023-02-03T00:09:43.437Z,82.75
2023-02-03T00:12:10.464Z,82.63
2023-02-03T00:14:38.047Z,75.72
2023-02-03T00:17:05.687Z,84.20
2023-02-03T00:19:32.894Z,72.78
2023-02-03T00:21:59.599Z,63.08
2023-02-03T00:24:26.354Z,66.05
2023-02-03T00:26:53.358Z,61.88
2023-02-03T00:29:24.760Z,65.50
2023-02-03T00:31:53.543Z,66.63
2023-02-03T00:34:20.747Z,64.75
2023-02-03T00:39:16.676Z,69.38
2023-02-03T00:41:43.531Z,68.97
2023-02-03T00:44:10.610Z,61.72
2023-02-03T00:46:38.116Z,63.85
2023-02-03T00:49:05.439Z,62.03
2023-02-03T00:51:33.474Z,57.22
2023-02-03T00:54:00.348Z,53.10
2023-02-03T00:56:27.122Z,49.33
2023-02-03T00:58:53.927Z,48.75
2023-02-03T01:01:20.766Z,49.92
2023-02-03T01:03:47.580Z,45.38
2023-02-03T01:06:20.128Z,50.00
2023-02-03T01:08:47.663Z,45.08
2023-02-03T01:11:20.288Z,44.10
2023-02-03T01:13:47.499Z,45.47
2023-02-03T01:18:43.171Z,47.42
2023-02-03T01:23:44.617Z,52.17
2023-02-03T01:26:17.918Z,48.22
2023-02-03T01:28:50.399Z,47.83
2023-02-03T01:31:20.977Z,45.75
2023-02-03T01:33:48.700Z,48.92
2023-02-03T01:36:17.503Z,50.15
2023-02-03T01:38:45.216Z,47.67
2023-02-03T01:41:14.972Z,48.80
2023-02-03T01:43:46.024Z,48.55
2023-02-03T01:46:27.544Z,49.92
2023-02-03T01:48:58.667Z,51.53
2023-02-03T01:51:25.384Z,51.50
2023-02-03T01:53:54.030Z,55.65
2023-02-03T01:56:22.090Z,56.30
2023-02-03T01:58:49.950Z,51.42
2023-02-03T02:01:19.437Z,52.30
2023-02-03T02:03:52.951Z,51.63
2023-02-03T02:06:19.880Z,53.13
2023-02-03T02:08:48.916Z,59.95
2023-02-03T02:11:16.335Z,54.90
2023-02-03T02:13:44.620Z,56.20
2023-02-03T02:16:25.725Z,60.38
2023-02-03T02:19:19.462Z,56.83
2023-02-03T02:21:55.097Z,55.50
2023-02-03T02:24:46.628Z,61.85
2023-02-03T02:27:16.182Z,56.05
2023-02-03T02:30:20.356Z,63.00
2023-02-03T02:33:03.204Z,66.57
2023-02-03T02:35:43.101Z,69.28
2023-02-03T02:38:23.546Z,65.00
2023-02-03T02:41:15.627Z,63.10
2023-02-03T02:43:43.512Z,70.75
2023-02-03T02:46:15.863Z,72.95
2023-02-03T02:48:52.368Z,66.68
2023-02-03T02:51:21.587Z,70.90
2023-02-03T02:53:58.288Z,71.07
2023-02-03T02:56:27.273Z,68.47
2023-02-03T02:58:56.310Z,74.82
2023-02-03T03:01:23.198Z,71.47
2023-02-03T03:03:50.219Z,73.68
2023-02-03T03:06:46.021Z,74.75
2023-02-03T03:09:21.472Z,72.28
2023-02-03T03:11:56.776Z,68.90
2023-02-03T03:14:26.882Z,67.85
2023-02-03T03:16:59.770Z,68.43
2023-02-03T03:19:32.979Z,64.22
2023-02-03T03:22:04.178Z,64.50
2023-02-03T03:24:56.004Z,64.35
2023-02-03T03:27:25.334Z,65.47
2023-02-03T03:30:06.357Z,64.75
2023-02-03T03:32:33.869Z,64.70
2023-02-03T03:35:03.001Z,69.47
2023-02-03T03:37:41.939Z,69.93
2023-02-03T03:40:33.475Z,68.82
2023-02-03T03:43:17.512Z,67.78
2023-02-03T03:46:00.558Z,79.07
2023-02-03T03:48:37.034Z,69.38
2023-02-03T03:51:09.260Z,70.20
2023-02-03T03:53:38.873Z,68.50
2023-02-03T03:56:08.433Z,69.65
2023-02-03T03:58:40.383Z,67.22
2023-02-03T04:01:08.539Z,69.85
2023-02-03T04:03:43.158Z,71.75
2023-02-03T04:06:10.019Z,77.35
2023-02-03T04:08:36.859Z,75.78
2023-02-03T04:11:03.746Z,74.03
2023-02-03T04:13:30.442Z,73.00
2023-02-03T04:15:57.270Z,73.55
2023-02-03T04:18:24.264Z,69.63
2023-02-03T04:20:51.158Z,71.32
2023-02-03T04:23:17.921Z,68.90
2023-02-03T04:25:44.730Z,71.63
2023-02-03T04:28:11.590Z,74.82
2023-02-03T04:30:38.433Z,69.93
2023-02-03T04:33:05.191Z,75.30
2023-02-03T04:35:31.923Z,71.93
2023-02-03T04:37:58.618Z,70.30
2023-02-03T04:40:25.702Z,66.90
2023-02-03T04:42:52.514Z,69.10
2023-02-03T04:45:19.294Z,73.95
2023-02-03T04:47:53.821Z,71.88
2023-02-03T04:50:21.054Z,73.35
2023-02-03T04:52:47.869Z,70.32
2023-02-03T04:55:14.765Z,68.35
2023-02-03T04:57:41.534Z,70.65
2023-02-03T05:00:08.942Z,68.78
2023-02-03T05:02:35.804Z,70.43
2023-02-03T05:05:02.595Z,73.50
2023-02-03T05:07:29.335Z,71.53
2023-02-03T05:09:56.085Z,71.03
2023-02-03T05:12:22.877Z,67.18
2023-02-03T05:14:49.575Z,67.75
2023-02-03T05:17:16.307Z,73.53
2023-02-03T05:19:43.150Z,73.88
2023-02-03T05:22:09.885Z,74.88
2023-02-03T05:24:36.639Z,79.90
2023-02-03T05:27:03.442Z,80.97
2023-02-03T05:29:30.199Z,74.30
2023-02-03T05:31:56.957Z,79.55
2023-02-03T05:34:23.792Z,75.15
2023-02-03T05:36:50.557Z,75.80
2023-02-03T05:39:17.330Z,83.65
2023-02-03T05:41:53.010Z,80.57
2023-02-03T05:44:24.945Z,77.18
2023-02-03T05:46:53.676Z,75.47
2023-02-03T05:49:20.692Z,79.35
2023-02-03T05:51:47.524Z,82.68
2023-02-03T05:54:14.503Z,86.90
2023-02-03T05:56:41.385Z,80.38
2023-02-03T05:59:08.812Z,78.30
2023-02-03T06:01:36.248Z,82.50
2023-02-03T06:04:03.814Z,78.18
2023-02-03T06:06:34.785Z,78.20
2023-02-03T06:09:06.017Z,78.47
2023-02-03T06:11:33.689Z,77.00
2023-02-03T06:14:00.758Z,76.00
2023-02-03T06:16:28.332Z,78.50
2023-02-03T06:18:59.502Z,77.72
2023-02-03T06:21:26.596Z,76.45
2023-02-03T06:23:53.538Z,84.93
2023-02-03T06:26:20.367Z,80.38
2023-02-03T06:28:47.281Z,84.20
2023-02-03T06:31:14.034Z,83.53
2023-02-03T06:33:40.863Z,87.18
2023-02-03T06:36:07.830Z,86.03
2023-02-03T06:38:34.719Z,83.75
2023-02-03T06:41:01.531Z,92.45
2023-02-03T06:43:28.443Z,94.13
2023-02-03T06:45:55.210Z,92.22
2023-02-03T06:48:22.082Z,97.75
2023-02-03T06:50:48.991Z,168.15
2023-02-03T06:53:15.867Z,162.35
2023-02-03T06:55:42.716Z,114.38
2023-02-03T06:58:09.434Z,102.20
2023-02-03T07:00:36.280Z,101.07
2023-02-03T07:03:03.159Z,99.60
2023-02-03T07:05:30.374Z,104.78
2023-02-03T07:07:57.470Z,102.43
2023-02-03T07:10:24.339Z,105.80
2023-02-03T07:12:52.017Z,104.43
2023-02-03T07:15:19.082Z,102.43
2023-02-03T07:17:54.281Z,112.28
2023-02-03T07:20:22.419Z,106.55
2023-02-03T07:22:57.405Z,105.10
2023-02-03T07:25:25.111Z,113.85
2023-02-03T07:27:51.926Z,108.15
2023-02-03T07:30:18.940Z,109.88
2023-02-03T07:32:50.441Z,109.97
2023-02-03T07:35:17.395Z,109.30
2023-02-03T07:37:44.383Z,112.30
2023-02-03T07:40:12.480Z,105.43
2023-02-03T07:42:43.109Z,108.63
2023-02-03T07:45:11.785Z,145.27
2023-02-03T07:47:38.966Z,152.15
2023-02-03T07:50:05.950Z,107.40
2023-02-03T07:52:32.758Z,104.72
2023-02-03T07:54:59.511Z,112.85
2023-02-03T07:57:26.734Z,111.60
2023-02-03T07:59:53.552Z,108.80
2023-02-03T08:02:20.460Z,106.53
2023-02-03T08:04:47.212Z,111.20
2023-02-03T08:07:13.964Z,108.70
2023-02-03T08:09:40.681Z,110.47
2023-02-03T08:12:07.536Z,120.15
2023-02-03T08:14:34.289Z,115.22
2023-02-03T08:17:00.990Z,115.57
2023-02-03T08:19:27.751Z,123.93
2023-02-03T08:21:54.512Z,118.05
2023-02-03T08:24:21.403Z,119.68
2023-02-03T08:26:48.174Z,121.05
2023-02-03T08:29:14.949Z,118.00
2023-02-03T08:31:44.825Z,126.07
2023-02-03T08:34:11.597Z,123.90
2023-02-03T08:36:40.022Z,121.43
2023-02-03T08:39:07.718Z,121.80
2023-02-03T08:41:34.602Z,119.45
2023-02-03T08:44:01.968Z,123.03
2023-02-03T08:46:29.030Z,127.03
2023-02-03T08:48:57.172Z,123.07
2023-02-03T08:51:24.706Z,127.43
2023-02-03T08:53:52.029Z,125.47
2023-02-03T08:56:18.883Z,122.20
2023-02-03T08:58:45.801Z,130.10
2023-02-03T09:01:16.088Z,123.03
2023-02-03T09:03:43.064Z,122.45
2023-02-03T09:06:13.040Z,125.35
2023-02-03T09:08:39.835Z,127.68
2023-02-03T09:11:11.053Z,126.68
2023-02-03T09:13:38.909Z,123.78
2023-02-03T09:16:08.920Z,125.47
2023-02-03T09:18:36.012Z,127.57
2023-02-03T09:21:04.581Z,121.65
2023-02-03T09:23:32.120Z,124.65
2023-02-03T09:28:33.540Z,124.57
2023-02-03T09:31:02.008Z,127.72
2023-02-03T09:33:29.234Z,133.65
2023-02-03T09:38:24.271Z,141.35
2023-02-03T09:41:10.487Z,130.93
2023-02-03T09:43:47.196Z,135.98
2023-02-03T09:46:21.715Z,131.02
2023-02-03T09:48:54.431Z,125.20
2023-02-03T09:51:29.650Z,133.98
2023-02-03T09:54:19.317Z,134.43
2023-02-03T09:56:52.519Z,131.68
2023-02-03T09:59:19.669Z,135.95
2023-02-03T10:04:37.970Z,130.90
2023-02-03T10:07:25.508Z,133.00
2023-02-03T10:10:17.060Z,135.55
2023-02-03T10:12:59.124Z,127.05
2023-02-03T10:15:44.701Z,133.77
2023-02-03T10:18:18.915Z,131.38
2023-02-03T10:20:52.911Z,137.95
2023-02-03T10:23:41.162Z,130.90
2023-02-03T10:26:14.701Z,137.18
2023-02-03T10:28:48.610Z,137.13
2023-02-03T10:31:20.340Z,135.73
2023-02-03T10:33:47.968Z,134.20
2023-02-03T10:36:22.315Z,131.63
2023-02-03T10:39:11.969Z,136.25
2023-02-03T10:41:38.824Z,133.32
2023-02-03T10:44:08.799Z,136.60
2023-02-03T10:46:39.627Z,140.15
2023-02-03T10:49:06.467Z,138.80
2023-02-03T10:51:48.227Z,133.18
2023-02-03T10:54:29.682Z,131.68
2023-02-03T10:57:04.379Z,138.10
2023-02-03T10:59:36.876Z,142.13
2023-02-03T11:02:21.171Z,138.18
2023-02-03T11:04:48.079Z,136.15
2023-02-03T11:07:26.820Z,136.20
2023-02-03T11:09:53.812Z,140.50
2023-02-03T11:12:20.581Z,136.25
2023-02-03T11:14:52.874Z,138.77
2023-02-03T11:17:23.091Z,139.60
2023-02-03T11:19:52.610Z,132.75
2023-02-03T11:22:32.863Z,133.80
2023-02-03T11:25:02.425Z,130.75
2023-02-03T11:27:33.768Z,127.43
2023-02-03T11:30:18.558Z,132.98
2023-02-03T11:32:47.961Z,125.35
2023-02-03T11:35:19.035Z,134.00
2023-02-03T11:37:49.214Z,130.95
2023-02-03T11:40:15.920Z,121.85
2023-02-03T11:42:44.735Z,133.15
2023-02-03T11:45:18.241Z,125.80
2023-02-03T11:48:08.383Z,136.43
2023-02-03T11:50:45.253Z,133.80
2023-02-03T11:53:47.880Z,133.85
2023-02-03T11:56:32.104Z,124.50
2023-02-03T11:59:01.866Z,124.45
2023-02-03T12:01:47.103Z,128.73
2023-02-03T12:04:19.791Z,127.82
2023-02-03T12:07:12.180Z,127.65
2023-02-03T12:10:08.151Z,131.23
2023-02-03T12:12:49.902Z,135.25
2023-02-03T12:15:22.295Z,135.30
2023-02-03T12:18:27.397Z,138.93
2023-02-03T12:21:17.979Z,132.82
2023-02-03T12:24:04.214Z,137.20
2023-02-03T12:26:41.621Z,130.07
2023-02-03T12:29:17.264Z,135.65
2023-02-03T12:32:39.057Z,129.27
2023-02-03T12:35:26.414Z,130.05
2023-02-03T12:38:22.533Z,130.88
2023-02-03T12:41:01.086Z,137.00
2023-02-03T12:43:40.802Z,131.80
2023-02-03T12:46:22.482Z,132.18
2023-02-03T12:49:04.665Z,127.00
2023-02-03T12:51:49.829Z,129.07
2023-02-03T12:54:16.530Z,127.30
2023-02-03T12:56:46.218Z,131.95
2023-02-03T12:59:19.854Z,124.35
2023-02-03T13:01:52.287Z,126.60
2023-02-03T13:04:36.677Z,130.20
2023-02-03T13:07:33.546Z,126.38
2023-02-03T13:10:03.695Z,133.50
2023-02-03T13:12:52.179Z,129.93
2023-02-03T13:15:21.624Z,125.70
2023-02-03T13:18:45.904Z,131.07
2023-02-03T13:21:13.072Z,131.15
2023-02-03T13:23:51.515Z,130.60
2023-02-03T13:26:42.789Z,132.73
2023-02-03T13:29:30.630Z,130.15
2023-02-03T13:32:06.421Z,131.02
2023-02-03T13:34:58.683Z,119.43
2023-02-03T13:37:34.338Z,130.70
2023-02-03T13:40:24.097Z,132.00
2023-02-03T13:43:06.016Z,131.43
2023-02-03T13:45:41.056Z,128.10
2023-02-03T13:48:10.893Z,131.65
2023-02-03T13:50:38.793Z,124.63
2023-02-03T13:53:15.127Z,123.60
2023-02-03T13:56:00.381Z,126.53
2023-02-03T13:58:31.115Z,124.45
2023-02-03T14:01:02.273Z,124.97
2023-02-03T14:03:29.111Z,141.52
2023-02-03T14:05:57.837Z,132.27
2023-02-03T14:08:30.089Z,123.53
2023-02-03T14:11:34.578Z,127.22
2023-02-03T14:14:27.368Z,122.40
2023-02-03T14:16:57.696Z,139.38
2023-02-03T14:19:30.629Z,130.05
2023-02-03T14:22:06.791Z,121.45
2023-02-03T14:24:35.765Z,126.57
2023-02-03T14:27:05.273Z,126.25
2023-02-03T14:29:37.344Z,146.70
2023-02-03T14:32:09.524Z,164.32
2023-02-03T14:34:49.093Z,126.78
2023-02-03T14:37:18.625Z,135.15
2023-02-03T14:39:48.703Z,163.75
2023-02-03T14:42:23.525Z,125.53
2023-02-03T14:45:09.094Z,234.68
2023-02-03T14:47:51.137Z,218.95
2023-02-03T14:50:37.779Z,128.57
2023-02-03T14:54:02.085Z,123.22
2023-02-03T14:57:18.408Z,122.20
2023-02-03T14:59:51.049Z,123.18
2023-02-03T15:02:25.935Z,119.20
2023-02-03T15:05:12.477Z,119.05
2023-02-03T15:07:45.268Z,124.25
2023-02-03T15:10:26.874Z,123.05
2023-02-03T15:12:56.185Z,125.35
2023-02-03T15:15:24.857Z,113.32
2023-02-03T15:17:57.222Z,122.32
2023-02-03T15:20:41.354Z,130.27
2023-02-03T15:23:23.269Z,128.60
2023-02-03T15:25:58.265Z,130.93
2023-02-03T15:28:27.007Z,132.32
2023-02-03T15:31:10.104Z,130.02
2023-02-03T15:33:39.103Z,138.25
2023-02-03T15:36:13.036Z,141.00
2023-02-03T15:38:45.207Z,139.05
2023-02-03T15:41:22.298Z,134.10
2023-02-03T15:43:56.733Z,133.10
2023-02-03T15:46:36.265Z,136.73
2023-02-03T15:49:13.199Z,139.07
2023-02-03T15:51:44.269Z,135.07
2023-02-03T15:54:30.201Z,136.18
2023-02-03T15:57:01.881Z,132.95
2023-02-03T15:59:36.005Z,143.05
2023-02-03T16:02:14.648Z,144.60
2023-02-03T16:04:41.686Z,135.68
2023-02-03T16:09:42.723Z,149.90
2023-02-03T16:12:31.595Z,154.50
2023-02-03T16:15:01.581Z,138.25
2023-02-03T16:17:33.704Z,143.05
2023-02-03T16:20:12.516Z,136.27
2023-02-03T16:22:43.986Z,141.70
2023-02-03T16:25:25.682Z,140.95
2023-02-03T16:28:20.051Z,138.30
2023-02-03T16:31:20.199Z,141.73
2023-02-03T16:34:08.264Z,133.00
2023-02-03T16:36:59.446Z,143.73
2023-02-03T16:39:45.491Z,138.70
2023-02-03T16:45:20.326Z,149.85
2023-02-03T16:48:05.807Z,146.68
2023-02-03T16:50:52.526Z,138.77
2023-02-03T16:53:24.219Z,143.77
2023-02-03T16:55:53.567Z,142.05
2023-02-03T16:58:20.448Z,134.15
2023-02-03T17:00:49.769Z,144.70
2023-02-03T17:03:21.250Z,142.70
2023-02-03T17:05:49.529Z,151.27
2023-02-03T17:08:18.512Z,154.30
2023-02-03T17:10:46.146Z,148.07
2023-02-03T17:13:12.987Z,152.30
2023-02-03T17:15:44.822Z,150.57
2023-02-03T17:18:12.566Z,137.35
2023-02-03T17:20:40.112Z,136.65
2023-02-03T17:23:06.893Z,147.35
2023-02-03T17:25:37.746Z,133.50
2023-02-03T17:28:06.320Z,143.10
2023-02-03T17:30:35.172Z,136.75
2023-02-03T17:33:03.395Z,136.00
2023-02-03T17:35:30.631Z,143.55
2023-02-03T17:37:57.798Z,140.65
2023-02-03T17:54:13.634Z,166.52
2023-02-03T17:56:40.556Z,148.90
2023-02-03T17:59:07.416Z,142.43
2023-02-03T18:01:34.251Z,153.07
2023-02-03T18:04:05.820Z,143.60
2023-02-03T18:06:35.151Z,150.85
2023-02-03T18:09:04.020Z,146.95
2023-02-03T18:11:34.473Z,149.70
2023-02-03T18:14:01.331Z,150.13
2023-02-03T18:16:32.518Z,153.35
2023-02-03T18:19:02.215Z,153.68
2023-02-03T18:21:32.191Z,150.90
2023-02-03T18:24:01.831Z,159.85
2023-02-03T18:26:34.314Z,161.15
2023-02-03T18:29:01.372Z,155.85
2023-02-03T18:31:28.483Z,167.27
2023-02-03T18:33:55.437Z,157.55
2023-02-03T18:36:22.294Z,155.35
2023-02-03T18:38:49.183Z,151.10
2023-02-03T18:41:21.770Z,162.45
2023-02-03T18:43:49.320Z,155.27
2023-02-03T18:46:22.061Z,155.88
2023-02-03T18:48:48.834Z,152.73
2023-02-03T18:51:17.573Z,159.38
2023-02-03T18:53:46.662Z,154.02
2023-02-03T18:56:23.219Z,152.98
2023-02-03T18:58:50.493Z,163.80
2023-02-03T19:01:22.953Z,161.90
2023-02-03T19:03:50.268Z,152.50
2023-02-03T19:06:17.559Z,152.02
2023-02-03T19:08:44.775Z,157.57
2023-02-03T19:11:13.329Z,153.32
2023-02-03T19:13:41.098Z,149.90
2023-02-03T19:16:09.049Z,156.18
2023-02-03T19:18:36.295Z,148.98
2023-02-03T19:21:03.332Z,158.82
2023-02-03T19:23:30.575Z,143.98
2023-02-03T19:25:57.429Z,155.10
2023-02-03T19:28:30.515Z,153.07
2023-02-03T19:31:09.593Z,148.82
2023-02-03T19:33:38.037Z,145.45
2023-02-03T19:36:06.144Z,140.75
2023-02-03T19:38:33.370Z,148.68
2023-02-03T19:41:03.539Z,141.70
2023-02-03T19:43:31.171Z,142.52
2023-02-03T19:45:58.397Z,134.23
2023-02-03T19:48:25.530Z,132.75
2023-02-03T19:50:52.307Z,137.38
2023-02-03T19:53:19.289Z,133.73
2023-02-03T19:55:46.538Z,131.27
2023-02-03T19:58:13.929Z,135.63
2023-02-03T20:00:41.926Z,150.23
2023-02-03T20:03:09.150Z,153.50
2023-02-03T20:05:36.442Z,143.52
2023-02-03T20:08:03.862Z,149.07
2023-02-03T20:10:32.530Z,147.65
2023-02-03T20:12:59.731Z,148.75
2023-02-03T20:15:27.157Z,146.25
2023-02-03T20:17:54.435Z,146.65
2023-02-03T20:20:21.694Z,146.80
2023-02-03T20:22:48.992Z,139.27
2023-02-03T20:25:15.936Z,141.77
2023-02-03T20:27:42.727Z,140.93
2023-02-03T20:30:10.282Z,140.35
2023-02-03T20:32:37.535Z,143.70
2023-02-03T20:35:06.209Z,135.05
2023-02-03T20:37:36.034Z,181.50
2023-02-03T20:40:06.246Z,140.45
2023-02-03T20:42:34.276Z,141.90
2023-02-03T20:45:01.420Z,146.73
2023-02-03T20:47:28.201Z,161.68
2023-02-03T20:49:55.795Z,151.45
2023-02-03T20:52:22.702Z,158.23
2023-02-03T20:54:49.588Z,146.27
2023-02-03T20:57:19.261Z,148.25
2023-02-03T20:59:46.908Z,149.00
2023-02-03T21:02:31.064Z,146.23
2023-02-03T21:04:58.593Z,149.25
2023-02-03T21:07:32.994Z,141.20
2023-02-03T21:10:00.127Z,137.35
2023-02-03T21:14:55.212Z,138.10
2023-02-03T21:17:26.316Z,138.98
2023-02-03T21:19:54.632Z,138.68
2023-02-03T21:22:27.532Z,140.02
2023-02-03T21:24:59.944Z,133.85
2023-02-03T21:27:32.031Z,133.70
2023-02-03T21:30:01.158Z,142.90
2023-02-03T21:32:39.490Z,134.07
2023-02-03T21:35:24.949Z,138.90
2023-02-03T21:38:01.816Z,137.73
2023-02-03T21:40:31.510Z,136.07
2023-02-03T21:42:59.228Z,134.95
2023-02-03T21:45:34.232Z,131.90
2023-02-03T21:48:03.019Z,141.35
2023-02-03T21:50:30.898Z,132.73
2023-02-03T21:53:12.521Z,139.25
2023-02-03T21:55:41.312Z,135.35
2023-02-03T21:58:30.255Z,133.70
2023-02-03T22:00:59.753Z,134.43
2023-02-03T22:03:48.492Z,133.15
2023-02-03T22:06:34.661Z,133.07
2023-02-03T22:09:01.423Z,140.38
2023-02-03T22:11:29.976Z,135.55
2023-02-03T22:13:57.588Z,135.98
2023-02-03T22:16:24.644Z,135.68
2023-02-03T22:18:52.174Z,137.10
2023-02-03T22:21:19.595Z,140.05
2023-02-03T22:23:46.477Z,143.18
2023-02-03T22:26:14.936Z,147.70
2023-02-03T22:28:42.281Z,142.18
2023-02-03T22:31:11.416Z,135.00
2023-02-03T22:33:38.952Z,139.15
2023-02-03T22:36:06.744Z,137.38
2023-02-03T22:38:34.907Z,135.93
2023-02-03T22:41:02.254Z,146.05
2023-02-03T22:43:31.150Z,136.98
2023-02-03T22:45:58.557Z,140.15
2023-02-03T22:48:25.520Z,140.68
2023-02-03T22:50:52.278Z,145.55
2023-02-03T22:53:19.040Z,138.60
2023-02-03T22:55:45.819Z,137.30
2023-02-03T22:58:12.672Z,142.23
2023-02-03T23:00:39.663Z,146.30
2023-02-03T23:03:06.697Z,129.18
2023-02-03T23:05:33.740Z,133.82
2023-02-03T23:08:00.964Z,135.38
2023-02-03T23:13:00.826Z,128.88
2023-02-03T23:15:28.356Z,128.02
2023-02-03T23:17:55.326Z,129.85
2023-02-03T23:20:22.465Z,125.53
2023-02-03T23:22:49.256Z,127.45
2023-02-03T23:25:16.142Z,127.60
2023-02-03T23:27:42.981Z,130.85
2023-02-03T23:30:10.493Z,131.27
2023-02-03T23:32:37.329Z,132.80
2023-02-03T23:35:22.969Z,144.48
2023-02-03T23:37:49.713Z,146.40
2023-02-03T23:40:16.559Z,144.45
2023-02-03T23:42:43.347Z,138.30
2023-02-03T23:45:12.201Z,143.73
2023-02-03T23:47:40.790Z,139.63
2023-02-03T23:50:09.891Z,138.10
2023-02-03T23:52:37.540Z,149.27
2023-02-03T23:55:10.529Z,141.18
2023-02-03T23:57:37.574Z,147.82
